(°C)
22°
21°
21°
21°
21°
20°
20°
(°C)
19°
17°
18°
18°
18°
18°
18°
С
ССВ
ССВ
ССВ
ССВ
ССВ
ССВ
(км/ч)
16-33
17-28
17-29
18-29
18-29
18-34
17-29
(мм)
0
3
0
0
0
0
0
(%)
1
25
1
1
8
1
1

Высота солнцестояния

/ -7.8°
sun-icon
UV 6
04:57
19:59
Растущая луна (158°)
19:42
01:47

METAR для 51.82°С 39.23°В (UUOO)

Время Условия Температура/
Точка росы
Ветер Видимость Погода Облачность Давление Изменить Необработанный
21°C / 16°C 60º 12kt >10km Light Thunderstorm Rain 3.00mm precipitation Vertical Visibility of 0ft. 1018 No Significant change. Runway 12: Damp, 51-100% contamination with <1mm, friction coefficient 0.60. UUOO 101730Z 06006MPS 9999 -TSRA BKN///CB 21/16 Q1018 R12/190060 NOSIG RMK QFE749
MVFR 24°C / 13°C 150º 6kt >10km Light Thunderstorm Rain 3.00mm precipitation Vertical Visibility of 0ft. 1018 No Significant change. Runway 12: Clear and dry, 1-10% contamination with <1mm, friction coefficient 0.70. UUOO 101700Z 15003MPS 9999 -TSRA BKN017CB 24/13 Q1018 R12/010070 NOSIG RMK QFE749
24°C / 15°C 180º 12kt >10km in the Vicinity Thunderstorm Vertical Visibility of 0ft. 1017 Temporary: Light Thunderstorm Rain . RMK QFE749 . Runway 12: Clear and dry, 1-10% contamination with <1mm, friction coefficient 0.70. UUOO 101630Z 18006MPS 9999 VCTS BKN///CB 24/15 Q1017 R12/010070 TEMPO -TSRA RMK QFE749
26°C / 16°C 110º variable 080º to 150º 4kt >10km in the Vicinity Thunderstorm Vertical Visibility of 0ft. 1017 Temporary: Light Thunderstorm Rain . RMK QFE749 . Runway 12: Clear and dry, 1-10% contamination with <1mm, friction coefficient 0.70. UUOO 101600Z 11002MPS 080V150 9999 VCTS SCT///CB 26/16 Q1017 R12/010070 TEMPO -TSRA RMK QFE749
27°C / 17°C 80º 6kt >10km in the Vicinity Thunderstorm Vertical Visibility of 0ft. 1017 Temporary: Light Thunderstorm Rain . RMK QFE749 . Runway 30: Clear and dry, 1-10% contamination with <1mm, friction coefficient 0.70. UUOO 101530Z 08003MPS 9999 VCTS SCT///CB 27/17 Q1017 R30/010070 TEMPO -TSRA RMK QFE749
VFR 28°C / 17°C 50º 4kt >10km - Clouds and Visibility OK 1017 No Significant change. Runway 30: Clear and dry, 1-10% contamination with <1mm, friction coefficient 0.70. UUOO 101500Z 05002MPS CAVOK 28/17 Q1017 R30/010070 NOSIG RMK QFE749
VFR 29°C / 17°C 10º 6kt >10km - Clouds and Visibility OK 1016 No Significant change. Runway 30: Clear and dry, 1-10% contamination with <1mm, friction coefficient 0.70. UUOO 101430Z 01003MPS CAVOK 29/17 Q1016 R30/010070 NOSIG RMK QFE749
VFR 29°C / 16°C 30º 6kt >10km - Clouds and Visibility OK 1016 No Significant change. Runway 30: Clear and dry, 1-10% contamination with <1mm, friction coefficient 0.70. UUOO 101400Z 03003MPS CAVOK 29/16 Q1016 R30/010070 NOSIG RMK QFE749
VFR 30°C / 16°C 30º 6kt >10km - Clouds and Visibility OK 1016 No Significant change. Runway 30: Clear and dry, 1-10% contamination with <1mm, friction coefficient 0.70. UUOO 101330Z 03003MPS CAVOK 30/16 Q1016 R30/010070 NOSIG RMK QFE749
VFR 30°C / 16°C 40º 6kt >10km - Clouds and Visibility OK 1017 No Significant change. Runway 30: Clear and dry, 1-10% contamination with <1mm, friction coefficient 0.70. UUOO 101300Z 04003MPS CAVOK 30/16 Q1017 R30/010070 NOSIG RMK QFE749
VFR 30°C / 17°C 40º 6kt >10km - Clouds and Visibility OK 1017 No Significant change. Runway 30: Clear and dry, 1-10% contamination with <1mm, friction coefficient 0.70. UUOO 101230Z 04003MPS CAVOK 30/17 Q1017 R30/010070 NOSIG RMK QFE749
VFR 30°C / 17°C 30º variable 360º to 070º 6kt >10km - Clouds and Visibility OK 1017 No Significant change. Runway 30: Clear and dry, 1-10% contamination with <1mm, friction coefficient 0.70. UUOO 101200Z 03003MPS 360V070 CAVOK 30/17 Q1017 R30/010070 NOSIG RMK QFE749
VFR 29°C / 17°C 30º variable 350º to 070º 6kt >10km - Clouds and Visibility OK 1017 No Significant change. Runway 30: Clear and dry, 1-10% contamination with <1mm, friction coefficient 0.70. UUOO 101130Z 03003MPS 350V070 CAVOK 29/17 Q1017 R30/010070 NOSIG RMK QFE749
VFR 30°C / 17°C 20º variable 350º to 060º 8kt >10km - Clouds and Visibility OK 1017 No Significant change. Runway 30: Clear and dry, 1-10% contamination with <1mm, friction coefficient 0.70. UUOO 101100Z 02004MPS 350V060 CAVOK 30/17 Q1017 R30/010070 NOSIG RMK QFE749
VFR 29°C / 17°C 20º variable 350º to 060º 6kt >10km - Clouds and Visibility OK 1017 No Significant change. Runway 30: Clear and dry, 1-10% contamination with <1mm, friction coefficient 0.70. UUOO 101030Z 02003MPS 350V060 CAVOK 29/17 Q1017 R30/010070 NOSIG RMK QFE749
VFR 29°C / 15°C 20º 6kt >10km - Clouds and Visibility OK 1017 No Significant change. Runway 30: Clear and dry, 1-10% contamination with <1mm, friction coefficient 0.70. UUOO 101000Z 02003MPS CAVOK 29/15 Q1017 R30/010070 NOSIG RMK QFE749
VFR 28°C / 16°C 20º variable 340º to 060º 6kt >10km - Clouds and Visibility OK 1017 No Significant change. Runway 30: Clear and dry, 1-10% contamination with <1mm, friction coefficient 0.70. UUOO 100930Z 02003MPS 340V060 CAVOK 28/16 Q1017 R30/010070 NOSIG RMK QFE749
VFR 27°C / 17°C 50º 8kt >10km - Clouds and Visibility OK 1018 No Significant change. Runway 30: Clear and dry, 1-10% contamination with <1mm, friction coefficient 0.70. UUOO 100900Z 05004MPS CAVOK 27/17 Q1018 R30/010070 NOSIG RMK QFE750
VFR 27°C / 18°C 360º 6kt >10km - Clouds and Visibility OK 1018 No Significant change. Runway 30: Clear and dry, 1-10% contamination with <1mm, friction coefficient 0.70. UUOO 100830Z 36003MPS CAVOK 27/18 Q1018 R30/010070 NOSIG RMK QFE750
VFR 26°C / 18°C 360º 6kt >10km - Clouds and Visibility OK 1018 No Significant change. Runway 30: Clear and dry, 1-10% contamination with <1mm, friction coefficient 0.70. UUOO 100800Z 36003MPS CAVOK 26/18 Q1018 R30/010070 NOSIG RMK QFE750
VFR 24°C / 17°C 350º variable 310º to 050º 6kt >10km - Clouds and Visibility OK 1018 No Significant change. Runway 30: Clear and dry, 1-10% contamination with <1mm, friction coefficient 0.70. UUOO 100730Z 35003MPS 310V050 CAVOK 24/17 Q1018 R30/010070 NOSIG RMK QFE750
VFR 24°C / 17°C 30º variable 340º to 070º 6kt >10km - Clouds and Visibility OK 1018 No Significant change. Runway 30: Clear and dry, 1-10% contamination with <1mm, friction coefficient 0.70. UUOO 100700Z 03003MPS 340V070 CAVOK 24/17 Q1018 R30/010070 NOSIG RMK QFE750
VFR 22°C / 17°C 10º 4kt >10km - Clouds and Visibility OK 1018 No Significant change. Runway 30: Clear and dry, 1-10% contamination with <1mm, friction coefficient 0.70. UUOO 100630Z 01002MPS CAVOK 22/17 Q1018 R30/010070 NOSIG RMK QFE750
VFR 23°C / 17°C 10º 6kt >10km - Clouds and Visibility OK 1018 No Significant change. Runway 30: Clear and dry, 1-10% contamination with <1mm, friction coefficient 0.70. UUOO 100600Z 01003MPS CAVOK 23/17 Q1018 R30/010070 NOSIG RMK QFE750

21°C / 16°C

[Больше]
Ветер 60º 12kt
Видимость >10km
Погода Light Thunderstorm Rain 3.00mm precipitation
Облачность Vertical Visibility of 0ft.
Давление 1018
Изменить No Significant change. Runway 12: Damp, 51-100% contamination with <1mm, friction coefficient 0.60.
Необработанный UUOO 101730Z 06006MPS 9999 -TSRA BKN///CB 21/16 Q1018 R12/190060 NOSIG RMK QFE749

MVFR

24°C / 13°C

[Больше]
Ветер 150º 6kt
Видимость >10km
Погода Light Thunderstorm Rain 3.00mm precipitation
Облачность Vertical Visibility of 0ft.
Давление 1018
Изменить No Significant change. Runway 12: Clear and dry, 1-10% contamination with <1mm, friction coefficient 0.70.
Необработанный UUOO 101700Z 15003MPS 9999 -TSRA BKN017CB 24/13 Q1018 R12/010070 NOSIG RMK QFE749

24°C / 15°C

[Больше]
Ветер 180º 12kt
Видимость >10km
Погода in the Vicinity Thunderstorm
Облачность Vertical Visibility of 0ft.
Давление 1017
Изменить Temporary: Light Thunderstorm Rain . RMK QFE749 . Runway 12: Clear and dry, 1-10% contamination with <1mm, friction coefficient 0.70.
Необработанный UUOO 101630Z 18006MPS 9999 VCTS BKN///CB 24/15 Q1017 R12/010070 TEMPO -TSRA RMK QFE749

26°C / 16°C

[Больше]
Ветер 110º variable 080º to 150º 4kt
Видимость >10km
Погода in the Vicinity Thunderstorm
Облачность Vertical Visibility of 0ft.
Давление 1017
Изменить Temporary: Light Thunderstorm Rain . RMK QFE749 . Runway 12: Clear and dry, 1-10% contamination with <1mm, friction coefficient 0.70.
Необработанный UUOO 101600Z 11002MPS 080V150 9999 VCTS SCT///CB 26/16 Q1017 R12/010070 TEMPO -TSRA RMK QFE749

27°C / 17°C

[Больше]
Ветер 80º 6kt
Видимость >10km
Погода in the Vicinity Thunderstorm
Облачность Vertical Visibility of 0ft.
Давление 1017
Изменить Temporary: Light Thunderstorm Rain . RMK QFE749 . Runway 30: Clear and dry, 1-10% contamination with <1mm, friction coefficient 0.70.
Необработанный UUOO 101530Z 08003MPS 9999 VCTS SCT///CB 27/17 Q1017 R30/010070 TEMPO -TSRA RMK QFE749

VFR

28°C / 17°C

[Больше]
Ветер 50º 4kt
Видимость >10km
Погода -
Облачность Clouds and Visibility OK
Давление 1017
Изменить No Significant change. Runway 30: Clear and dry, 1-10% contamination with <1mm, friction coefficient 0.70.
Необработанный UUOO 101500Z 05002MPS CAVOK 28/17 Q1017 R30/010070 NOSIG RMK QFE749

VFR

29°C / 17°C

[Больше]
Ветер 10º 6kt
Видимость >10km
Погода -
Облачность Clouds and Visibility OK
Давление 1016
Изменить No Significant change. Runway 30: Clear and dry, 1-10% contamination with <1mm, friction coefficient 0.70.
Необработанный UUOO 101430Z 01003MPS CAVOK 29/17 Q1016 R30/010070 NOSIG RMK QFE749

VFR

29°C / 16°C

[Больше]
Ветер 30º 6kt
Видимость >10km
Погода -
Облачность Clouds and Visibility OK
Давление 1016
Изменить No Significant change. Runway 30: Clear and dry, 1-10% contamination with <1mm, friction coefficient 0.70.
Необработанный UUOO 101400Z 03003MPS CAVOK 29/16 Q1016 R30/010070 NOSIG RMK QFE749

VFR

30°C / 16°C

[Больше]
Ветер 30º 6kt
Видимость >10km
Погода -
Облачность Clouds and Visibility OK
Давление 1016
Изменить No Significant change. Runway 30: Clear and dry, 1-10% contamination with <1mm, friction coefficient 0.70.
Необработанный UUOO 101330Z 03003MPS CAVOK 30/16 Q1016 R30/010070 NOSIG RMK QFE749

VFR

30°C / 16°C

[Больше]
Ветер 40º 6kt
Видимость >10km
Погода -
Облачность Clouds and Visibility OK
Давление 1017
Изменить No Significant change. Runway 30: Clear and dry, 1-10% contamination with <1mm, friction coefficient 0.70.
Необработанный UUOO 101300Z 04003MPS CAVOK 30/16 Q1017 R30/010070 NOSIG RMK QFE749

VFR

30°C / 17°C

[Больше]
Ветер 40º 6kt
Видимость >10km
Погода -
Облачность Clouds and Visibility OK
Давление 1017
Изменить No Significant change. Runway 30: Clear and dry, 1-10% contamination with <1mm, friction coefficient 0.70.
Необработанный UUOO 101230Z 04003MPS CAVOK 30/17 Q1017 R30/010070 NOSIG RMK QFE749

VFR

30°C / 17°C

[Больше]
Ветер 30º variable 360º to 070º 6kt
Видимость >10km
Погода -
Облачность Clouds and Visibility OK
Давление 1017
Изменить No Significant change. Runway 30: Clear and dry, 1-10% contamination with <1mm, friction coefficient 0.70.
Необработанный UUOO 101200Z 03003MPS 360V070 CAVOK 30/17 Q1017 R30/010070 NOSIG RMK QFE749

VFR

29°C / 17°C

[Больше]
Ветер 30º variable 350º to 070º 6kt
Видимость >10km
Погода -
Облачность Clouds and Visibility OK
Давление 1017
Изменить No Significant change. Runway 30: Clear and dry, 1-10% contamination with <1mm, friction coefficient 0.70.
Необработанный UUOO 101130Z 03003MPS 350V070 CAVOK 29/17 Q1017 R30/010070 NOSIG RMK QFE749

VFR

30°C / 17°C

[Больше]
Ветер 20º variable 350º to 060º 8kt
Видимость >10km
Погода -
Облачность Clouds and Visibility OK
Давление 1017
Изменить No Significant change. Runway 30: Clear and dry, 1-10% contamination with <1mm, friction coefficient 0.70.
Необработанный UUOO 101100Z 02004MPS 350V060 CAVOK 30/17 Q1017 R30/010070 NOSIG RMK QFE749

VFR

29°C / 17°C

[Больше]
Ветер 20º variable 350º to 060º 6kt
Видимость >10km
Погода -
Облачность Clouds and Visibility OK
Давление 1017
Изменить No Significant change. Runway 30: Clear and dry, 1-10% contamination with <1mm, friction coefficient 0.70.
Необработанный UUOO 101030Z 02003MPS 350V060 CAVOK 29/17 Q1017 R30/010070 NOSIG RMK QFE749

VFR

29°C / 15°C

[Больше]
Ветер 20º 6kt
Видимость >10km
Погода -
Облачность Clouds and Visibility OK
Давление 1017
Изменить No Significant change. Runway 30: Clear and dry, 1-10% contamination with <1mm, friction coefficient 0.70.
Необработанный UUOO 101000Z 02003MPS CAVOK 29/15 Q1017 R30/010070 NOSIG RMK QFE749

VFR

28°C / 16°C

[Больше]
Ветер 20º variable 340º to 060º 6kt
Видимость >10km
Погода -
Облачность Clouds and Visibility OK
Давление 1017
Изменить No Significant change. Runway 30: Clear and dry, 1-10% contamination with <1mm, friction coefficient 0.70.
Необработанный UUOO 100930Z 02003MPS 340V060 CAVOK 28/16 Q1017 R30/010070 NOSIG RMK QFE749

VFR

27°C / 17°C

[Больше]
Ветер 50º 8kt
Видимость >10km
Погода -
Облачность Clouds and Visibility OK
Давление 1018
Изменить No Significant change. Runway 30: Clear and dry, 1-10% contamination with <1mm, friction coefficient 0.70.
Необработанный UUOO 100900Z 05004MPS CAVOK 27/17 Q1018 R30/010070 NOSIG RMK QFE750

VFR

27°C / 18°C

[Больше]
Ветер 360º 6kt
Видимость >10km
Погода -
Облачность Clouds and Visibility OK
Давление 1018
Изменить No Significant change. Runway 30: Clear and dry, 1-10% contamination with <1mm, friction coefficient 0.70.
Необработанный UUOO 100830Z 36003MPS CAVOK 27/18 Q1018 R30/010070 NOSIG RMK QFE750

VFR

26°C / 18°C

[Больше]
Ветер 360º 6kt
Видимость >10km
Погода -
Облачность Clouds and Visibility OK
Давление 1018
Изменить No Significant change. Runway 30: Clear and dry, 1-10% contamination with <1mm, friction coefficient 0.70.
Необработанный UUOO 100800Z 36003MPS CAVOK 26/18 Q1018 R30/010070 NOSIG RMK QFE750

VFR

24°C / 17°C

[Больше]
Ветер 350º variable 310º to 050º 6kt
Видимость >10km
Погода -
Облачность Clouds and Visibility OK
Давление 1018
Изменить No Significant change. Runway 30: Clear and dry, 1-10% contamination with <1mm, friction coefficient 0.70.
Необработанный UUOO 100730Z 35003MPS 310V050 CAVOK 24/17 Q1018 R30/010070 NOSIG RMK QFE750

VFR

24°C / 17°C

[Больше]
Ветер 30º variable 340º to 070º 6kt
Видимость >10km
Погода -
Облачность Clouds and Visibility OK
Давление 1018
Изменить No Significant change. Runway 30: Clear and dry, 1-10% contamination with <1mm, friction coefficient 0.70.
Необработанный UUOO 100700Z 03003MPS 340V070 CAVOK 24/17 Q1018 R30/010070 NOSIG RMK QFE750

VFR

22°C / 17°C

[Больше]
Ветер 10º 4kt
Видимость >10km
Погода -
Облачность Clouds and Visibility OK
Давление 1018
Изменить No Significant change. Runway 30: Clear and dry, 1-10% contamination with <1mm, friction coefficient 0.70.
Необработанный UUOO 100630Z 01002MPS CAVOK 22/17 Q1018 R30/010070 NOSIG RMK QFE750

VFR

23°C / 17°C

[Больше]
Ветер 10º 6kt
Видимость >10km
Погода -
Облачность Clouds and Visibility OK
Давление 1018
Изменить No Significant change. Runway 30: Clear and dry, 1-10% contamination with <1mm, friction coefficient 0.70.
Необработанный UUOO 100600Z 01003MPS CAVOK 23/17 Q1018 R30/010070 NOSIG RMK QFE750

TAF для 51.82°С 39.23°В (UUOO)

From till


From till Wind 30º 6kt. Visibility 10km or more. Scattered Clouds 3000ft.
Temporarly from till Light Thunderstorm Rain . Broken Clouds 1600ft.

Необработанный: TAF UUOO 101700Z 1018/1103 03003MPS 9999 SCT030 TEMPO 1018/1021 -TSRA BKN016CB

Радарный и сверхкраткосрочный прогноз осадков для 51.82°С 39.23°В

Морось
Незначительные
Умеренные
Сильные
Очень Сильные
Град

Индикатор местности находится на 51.82°С 39.23°В. Анимация показывает радар осадков за последний час, а также прогноз погоды для 1h. Морось или небольшой снег могут быть невидимы для радара. Интенсивность осадков имеет цветовую кодировку - от светло-голубого до оранжевого.

Текущие спутниковые изображения и снимки дождя для 51.82°С 39.23°В

Указатель местности находится на 51.82°С 39.23°В. [Больше]

Спутниковое изображение в реальном времени сочетает в себе видимый свет в дневное время с инфракрасным излучением в ночное время. Ночью изображение получается не темным, так как инфракрасное излучение может обнаружить разницу температур. К сожалению, низкие облака и туман трудно отличить от температуры у поверхности земли и поэтому могут быть почти незаметны ночью. Спутниковые снимки Meteosat для Европы обновляются каждые 5 минут в режиме реального времени.Снимки GOES-16/GOES-17 (Северная и Южная Америка) и Химавари (Азия) обновляются каждые 10 минут.

Копирайт 2022 EUMETSAT / meteoblue. / Копирайт 2022 meteoblue

Обратно к последним данным